Portada
METAR-TAF:

METAR-TAF

Aeroports :

Aeroport de Lelystad

Lelystad, Països Baixos

latitud: 52-27-37N, longitud: 005-31-38E, altitud: -4 m

Observació

L'informe es va fer fa 39 minuts, a les 13:25 UTC
Vent 7 kt del Nord/Nord-Est, variant entre Nord i Est
Temperatura 9°C
Humitat 40%
Pressió 1031 hPa
Visibilitat 10 km o més

METAR: EHLE 311325Z AUTO 02007KT 350V080 9999 NCD 09/M04 Q1031 NOSIG

Hora: 16:04 (14:04 UTC)

Pronòstic

L'informe es va fer fa 2 hores i 51 minuts, a les 11:13 UTC
Pronòstic vàlid del 31 a les 12 UTC al 01 a les 18 UTC
Vent 10 kt del Nord-Est
Visibilitat 10 km o més
sense núvols per sota de 1500 mi sense presència de cumulonimbus.
Evolucionant progressivament
l' 31 a les 17 UTC al 31 a les 20 UTC
Vent 3 kt amb direcció variable
Evolucionant progressivament
l' 01 a les 07 UTC al 01 a les 10 UTC
Vent 9 kt del Oest/Nord-Oest

TAF: EHLE 311113Z 3112/0118 05010KT CAVOK BECMG 3117/3120 VRB03KT BECMG 0107/0110 29009KT

Observacions i pronòstics meteorològics de més de 4000 aeroports (METAR i TAF).

Les estacions disponibles són els punts grocs i vermells al mapa.

Posi el ratolí al punt desitjat per veure el nom de l'estació.

Feu clic per veure les observacions i els pronòstics meteorològics.

Per canviar el mapa: feu clic els botons verds amb una creu de color negre per apropar; al botó verd amb un guió per allunyar la imatge; o en les fletxes verdes per a mapes adjacents.


METAR-TAF: